sensor_id;sensor_type;location;lat;lon;timestamp;temperature;humidity
68943;DHT22;60852;52.190;4.422;2023-12-29T00:01:14;11.33;84.83
68943;DHT22;60852;52.190;4.422;2023-12-29T00:03:39;11.31;85.07
68943;DHT22;60852;52.190;4.422;2023-12-29T00:06:06;11.29;85.33
68943;DHT22;60852;52.190;4.422;2023-12-29T00:08:31;11.23;85.78
68943;DHT22;60852;52.190;4.422;2023-12-29T00:10:57;11.24;85.85
68943;DHT22;60852;52.190;4.422;2023-12-29T00:13:22;11.19;85.70
68943;DHT22;60852;52.190;4.422;2023-12-29T00:15:53;11.24;85.79
68943;DHT22;60852;52.190;4.422;2023-12-29T00:18:19;11.20;85.45
68943;DHT22;60852;52.190;4.422;2023-12-29T00:20:44;11.19;85.22
68943;DHT22;60852;52.190;4.422;2023-12-29T00:23:10;11.24;85.03
68943;DHT22;60852;52.190;4.422;2023-12-29T00:25:36;11.29;84.50
68943;DHT22;60852;52.190;4.422;2023-12-29T00:28:03;11.34;84.38
68943;DHT22;60852;52.190;4.422;2023-12-29T00:30:28;11.36;84.24
68943;DHT22;60852;52.190;4.422;2023-12-29T00:32:55;11.43;84.22
68943;DHT22;60852;52.190;4.422;2023-12-29T00:35:20;11.50;83.77
68943;DHT22;60852;52.190;4.422;2023-12-29T00:37:46;11.47;83.59
68943;DHT22;60852;52.190;4.422;2023-12-29T00:40:11;11.46;83.60
68943;DHT22;60852;52.190;4.422;2023-12-29T00:42:37;11.47;83.57
68943;DHT22;60852;52.190;4.422;2023-12-29T00:45:03;11.51;83.39
68943;DHT22;60852;52.190;4.422;2023-12-29T00:47:29;11.53;83.50
68943;DHT22;60852;52.190;4.422;2023-12-29T00:49:55;11.50;83.43
68943;DHT22;60852;52.190;4.422;2023-12-29T00:52:20;11.34;83.98
68943;DHT22;60852;52.190;4.422;2023-12-29T00:54:45;11.41;83.92
68943;DHT22;60852;52.190;4.422;2023-12-29T00:57:11;11.40;83.84
68943;DHT22;60852;52.190;4.422;2023-12-29T00:59:38;11.40;83.88
68943;DHT22;60852;52.190;4.422;2023-12-29T01:02:06;11.46;83.74
68943;DHT22;60852;52.190;4.422;2023-12-29T01:04:32;11.43;83.53
68943;DHT22;60852;52.190;4.422;2023-12-29T01:06:58;11.41;83.66
68943;DHT22;60852;52.190;4.422;2023-12-29T01:09:23;11.39;83.42
68943;DHT22;60852;52.190;4.422;2023-12-29T01:11:48;11.39;83.44
68943;DHT22;60852;52.190;4.422;2023-12-29T01:14:14;11.53;83.21
68943;DHT22;60852;52.190;4.422;2023-12-29T01:16:41;11.53;82.68
68943;DHT22;60852;52.190;4.422;2023-12-29T01:19:07;11.53;82.65
68943;DHT22;60852;52.190;4.422;2023-12-29T01:21:32;11.43;82.51
68943;DHT22;60852;52.190;4.422;2023-12-29T01:24:00;11.51;82.52
68943;DHT22;60852;52.190;4.422;2023-12-29T01:26:26;11.57;82.49
68943;DHT22;60852;52.190;4.422;2023-12-29T01:28:52;11.47;82.68
68943;DHT22;60852;52.190;4.422;2023-12-29T01:31:17;11.56;82.55
68943;DHT22;60852;52.190;4.422;2023-12-29T01:33:43;11.61;82.56
68943;DHT22;60852;52.190;4.422;2023-12-29T01:36:08;11.56;83.06
68943;DHT22;60852;52.190;4.422;2023-12-29T01:38:34;11.54;83.07
68943;DHT22;60852;52.190;4.422;2023-12-29T01:40:59;11.54;83.09
68943;DHT22;60852;52.190;4.422;2023-12-29T01:43:25;11.54;82.83
68943;DHT22;60852;52.190;4.422;2023-12-29T01:45:50;11.54;82.61
68943;DHT22;60852;52.190;4.422;2023-12-29T01:48:16;11.60;82.54
68943;DHT22;60852;52.190;4.422;2023-12-29T01:50:42;11.60;82.49
68943;DHT22;60852;52.190;4.422;2023-12-29T01:53:08;11.60;82.55
68943;DHT22;60852;52.190;4.422;2023-12-29T01:55:33;11.54;82.73
68943;DHT22;60852;52.190;4.422;2023-12-29T01:58:00;11.53;82.89
68943;DHT22;60852;52.190;4.422;2023-12-29T02:00:26;11.46;83.27
68943;DHT22;60852;52.190;4.422;2023-12-29T02:02:53;11.41;83.50
68943;DHT22;60852;52.190;4.422;2023-12-29T02:05:22;11.47;83.54
68943;DHT22;60852;52.190;4.422;2023-12-29T02:07:51;11.50;83.45
68943;DHT22;60852;52.190;4.422;2023-12-29T02:10:19;11.44;83.88
68943;DHT22;60852;52.190;4.422;2023-12-29T02:12:47;11.39;83.81
68943;DHT22;60852;52.190;4.422;2023-12-29T02:15:14;11.41;83.85
68943;DHT22;60852;52.190;4.422;2023-12-29T02:17:45;11.39;83.72
68943;DHT22;60852;52.190;4.422;2023-12-29T02:20:13;11.33;83.50
68943;DHT22;60852;52.190;4.422;2023-12-29T02:22:39;11.37;83.36
68943;DHT22;60852;52.190;4.422;2023-12-29T02:25:06;11.36;83.06
68943;DHT22;60852;52.190;4.422;2023-12-29T02:30:28;11.36;82.99
68943;DHT22;60852;52.190;4.422;2023-12-29T02:33:00;11.34;83.21
68943;DHT22;60852;52.190;4.422;2023-12-29T02:35:28;11.46;83.35
68943;DHT22;60852;52.190;4.422;2023-12-29T02:37:56;11.46;83.49
68943;DHT22;60852;52.190;4.422;2023-12-29T02:40:23;11.53;83.68
68943;DHT22;60852;52.190;4.422;2023-12-29T02:42:50;11.50;83.77
68943;DHT22;60852;52.190;4.422;2023-12-29T02:45:16;11.44;83.85
68943;DHT22;60852;52.190;4.422;2023-12-29T02:47:42;11.40;83.73
68943;DHT22;60852;52.190;4.422;2023-12-29T02:50:09;11.33;83.74
68943;DHT22;60852;52.190;4.422;2023-12-29T02:52:35;11.31;83.00
68943;DHT22;60852;52.190;4.422;2023-12-29T02:55:01;11.19;82.43
68943;DHT22;60852;52.190;4.422;2023-12-29T02:57:26;11.18;82.03
68943;DHT22;60852;52.190;4.422;2023-12-29T02:59:51;11.15;81.09
68943;DHT22;60852;52.190;4.422;2023-12-29T03:02:17;11.09;79.85
68943;DHT22;60852;52.190;4.422;2023-12-29T03:04:42;11.09;77.33
68943;DHT22;60852;52.190;4.422;2023-12-29T03:07:09;11.12;75.72
68943;DHT22;60852;52.190;4.422;2023-12-29T03:09:34;11.18;75.08
68943;DHT22;60852;52.190;4.422;2023-12-29T03:12:00;11.23;74.43
68943;DHT22;60852;52.190;4.422;2023-12-29T03:14:25;11.22;73.74
68943;DHT22;60852;52.190;4.422;2023-12-29T03:16:51;11.24;73.62
68943;DHT22;60852;52.190;4.422;2023-12-29T03:19:16;11.27;73.82
68943;DHT22;60852;52.190;4.422;2023-12-29T03:21:42;11.34;74.01
68943;DHT22;60852;52.190;4.422;2023-12-29T03:24:07;11.37;74.01
68943;DHT22;60852;52.190;4.422;2023-12-29T03:26:32;11.34;74.12
68943;DHT22;60852;52.190;4.422;2023-12-29T03:28:58;11.29;74.15
68943;DHT22;60852;52.190;4.422;2023-12-29T03:31:23;11.24;74.27
68943;DHT22;60852;52.190;4.422;2023-12-29T03:33:49;11.19;74.22
68943;DHT22;60852;52.190;4.422;2023-12-29T03:36:14;11.18;74.08
68943;DHT22;60852;52.190;4.422;2023-12-29T03:38:39;11.18;73.95
68943;DHT22;60852;52.190;4.422;2023-12-29T03:41:05;11.24;73.85
68943;DHT22;60852;52.190;4.422;2023-12-29T03:43:30;11.27;73.57
68943;DHT22;60852;52.190;4.422;2023-12-29T03:45:56;11.33;73.75
68943;DHT22;60852;52.190;4.422;2023-12-29T03:48:21;11.31;73.80
68943;DHT22;60852;52.190;4.422;2023-12-29T03:50:47;11.40;73.82
68943;DHT22;60852;52.190;4.422;2023-12-29T03:53:12;11.41;73.99
68943;DHT22;60852;52.190;4.422;2023-12-29T03:55:40;11.41;74.41
68943;DHT22;60852;52.190;4.422;2023-12-29T03:58:06;11.40;75.01
68943;DHT22;60852;52.190;4.422;2023-12-29T04:00:31;11.40;75.81
68943;DHT22;60852;52.190;4.422;2023-12-29T04:02:57;11.39;76.72
68943;DHT22;60852;52.190;4.422;2023-12-29T04:05:22;11.36;77.56
68943;DHT22;60852;52.190;4.422;2023-12-29T04:07:48;11.40;78.97
68943;DHT22;60852;52.190;4.422;2023-12-29T04:10:13;11.33;79.66
68943;DHT22;60852;52.190;4.422;2023-12-29T04:12:39;11.31;79.95
68943;DHT22;60852;52.190;4.422;2023-12-29T04:15:04;11.30;80.10
68943;DHT22;60852;52.190;4.422;2023-12-29T04:17:30;11.29;79.90
68943;DHT22;60852;52.190;4.422;2023-12-29T04:19:55;11.29;79.65
68943;DHT22;60852;52.190;4.422;2023-12-29T04:22:22;11.29;79.51
68943;DHT22;60852;52.190;4.422;2023-12-29T04:24:47;11.24;79.04
68943;DHT22;60852;52.190;4.422;2023-12-29T04:27:14;11.26;79.02
68943;DHT22;60852;52.190;4.422;2023-12-29T04:29:40;11.33;78.81
68943;DHT22;60852;52.190;4.422;2023-12-29T04:32:05;11.36;78.60
68943;DHT22;60852;52.190;4.422;2023-12-29T04:34:31;11.31;78.58
68943;DHT22;60852;52.190;4.422;2023-12-29T04:36:56;11.31;78.79
68943;DHT22;60852;52.190;4.422;2023-12-29T04:39:22;11.31;78.81
68943;DHT22;60852;52.190;4.422;2023-12-29T04:41:47;11.30;78.98
68943;DHT22;60852;52.190;4.422;2023-12-29T04:44:13;11.31;78.73
68943;DHT22;60852;52.190;4.422;2023-12-29T04:46:38;11.30;78.66
68943;DHT22;60852;52.190;4.422;2023-12-29T04:49:03;11.34;78.67
68943;DHT22;60852;52.190;4.422;2023-12-29T04:51:29;11.36;78.43
68943;DHT22;60852;52.190;4.422;2023-12-29T04:53:54;11.27;78.54
68943;DHT22;60852;52.190;4.422;2023-12-29T04:56:20;11.30;78.49
68943;DHT22;60852;52.190;4.422;2023-12-29T04:58:46;11.29;78.29
68943;DHT22;60852;52.190;4.422;2023-12-29T05:01:11;11.36;78.17
68943;DHT22;60852;52.190;4.422;2023-12-29T05:03:37;11.31;78.26
68943;DHT22;60852;52.190;4.422;2023-12-29T05:06:02;11.33;78.09
68943;DHT22;60852;52.190;4.422;2023-12-29T05:08:28;11.37;78.13
68943;DHT22;60852;52.190;4.422;2023-12-29T05:10:53;11.36;78.17
68943;DHT22;60852;52.190;4.422;2023-12-29T05:13:20;11.33;78.33
68943;DHT22;60852;52.190;4.422;2023-12-29T05:15:46;11.36;78.52
68943;DHT22;60852;52.190;4.422;2023-12-29T05:18:11;11.37;78.68
68943;DHT22;60852;52.190;4.422;2023-12-29T05:20:37;11.41;78.91
68943;DHT22;60852;52.190;4.422;2023-12-29T05:23:02;11.39;79.32
68943;DHT22;60852;52.190;4.422;2023-12-29T05:25:28;11.36;79.73
68943;DHT22;60852;52.190;4.422;2023-12-29T05:27:53;11.39;79.55
68943;DHT22;60852;52.190;4.422;2023-12-29T05:30:19;11.46;79.57
68943;DHT22;60852;52.190;4.422;2023-12-29T05:32:44;11.41;79.72
68943;DHT22;60852;52.190;4.422;2023-12-29T05:35:09;11.41;79.87
68943;DHT22;60852;52.190;4.422;2023-12-29T05:37:35;11.43;79.88
68943;DHT22;60852;52.190;4.422;2023-12-29T05:40:00;11.51;79.75
68943;DHT22;60852;52.190;4.422;2023-12-29T05:42:26;11.51;79.69
68943;DHT22;60852;52.190;4.422;2023-12-29T05:44:51;11.46;79.88
68943;DHT22;60852;52.190;4.422;2023-12-29T05:47:17;11.49;79.96
68943;DHT22;60852;52.190;4.422;2023-12-29T05:49:43;11.49;80.15
68943;DHT22;60852;52.190;4.422;2023-12-29T05:52:09;11.53;80.21
68943;DHT22;60852;52.190;4.422;2023-12-29T05:54:34;11.50;80.92
68943;DHT22;60852;52.190;4.422;2023-12-29T05:57:00;11.49;81.15
68943;DHT22;60852;52.190;4.422;2023-12-29T05:59:26;11.59;81.16
68943;DHT22;60852;52.190;4.422;2023-12-29T06:01:51;11.59;80.94
68943;DHT22;60852;52.190;4.422;2023-12-29T06:04:17;11.59;80.98
68943;DHT22;60852;52.190;4.422;2023-12-29T06:06:42;11.66;80.75
68943;DHT22;60852;52.190;4.422;2023-12-29T06:09:11;11.57;80.85
68943;DHT22;60852;52.190;4.422;2023-12-29T06:11:36;11.59;80.62
68943;DHT22;60852;52.190;4.422;2023-12-29T06:14:02;11.51;80.38
68943;DHT22;60852;52.190;4.422;2023-12-29T06:16:27;11.54;79.79
68943;DHT22;60852;52.190;4.422;2023-12-29T06:18:55;11.57;79.50
68943;DHT22;60852;52.190;4.422;2023-12-29T06:21:20;11.66;79.08
68943;DHT22;60852;52.190;4.422;2023-12-29T06:23:46;11.63;78.90
68943;DHT22;60852;52.190;4.422;2023-12-29T06:26:19;11.59;79.04
68943;DHT22;60852;52.190;4.422;2023-12-29T06:28:46;11.64;78.97
68943;DHT22;60852;52.190;4.422;2023-12-29T06:31:12;11.67;78.95
68943;DHT22;60852;52.190;4.422;2023-12-29T06:33:44;11.66;79.25
68943;DHT22;60852;52.190;4.422;2023-12-29T06:36:09;11.66;79.24
68943;DHT22;60852;52.190;4.422;2023-12-29T06:38:36;11.68;79.29
68943;DHT22;60852;52.190;4.422;2023-12-29T06:41:02;11.63;79.80
68943;DHT22;60852;52.190;4.422;2023-12-29T06:43:29;11.61;80.05
68943;DHT22;60852;52.190;4.422;2023-12-29T06:45:56;11.68;80.01
68943;DHT22;60852;52.190;4.422;2023-12-29T06:48:22;11.57;80.39
68943;DHT22;60852;52.190;4.422;2023-12-29T06:50:47;11.64;80.38
68943;DHT22;60852;52.190;4.422;2023-12-29T06:53:13;11.66;80.49
68943;DHT22;60852;52.190;4.422;2023-12-29T06:55:38;11.67;80.56
68943;DHT22;60852;52.190;4.422;2023-12-29T06:58:04;11.64;81.01
68943;DHT22;60852;52.190;4.422;2023-12-29T07:00:30;11.70;81.35
68943;DHT22;60852;52.190;4.422;2023-12-29T07:02:55;11.68;81.63
68943;DHT22;60852;52.190;4.422;2023-12-29T07:05:21;11.71;81.88
68943;DHT22;60852;52.190;4.422;2023-12-29T07:07:46;11.77;81.84
68943;DHT22;60852;52.190;4.422;2023-12-29T07:10:13;11.77;82.11
68943;DHT22;60852;52.190;4.422;2023-12-29T07:12:40;11.80;82.04
68943;DHT22;60852;52.190;4.422;2023-12-29T07:15:06;11.75;81.94
68943;DHT22;60852;52.190;4.422;2023-12-29T07:17:31;11.74;82.14
68943;DHT22;60852;52.190;4.422;2023-12-29T07:19:57;11.73;82.40
68943;DHT22;60852;52.190;4.422;2023-12-29T07:22:22;11.77;82.56
68943;DHT22;60852;52.190;4.422;2023-12-29T07:24:48;11.84;82.75
68943;DHT22;60852;52.190;4.422;2023-12-29T07:27:13;11.81;82.84
68943;DHT22;60852;52.190;4.422;2023-12-29T07:29:39;11.85;83.05
68943;DHT22;60852;52.190;4.422;2023-12-29T07:32:04;11.88;82.94
68943;DHT22;60852;52.190;4.422;2023-12-29T07:34:30;11.85;82.86
68943;DHT22;60852;52.190;4.422;2023-12-29T07:36:57;11.82;83.00
68943;DHT22;60852;52.190;4.422;2023-12-29T07:39:24;11.77;83.07
68943;DHT22;60852;52.190;4.422;2023-12-29T07:41:50;11.77;83.24
68943;DHT22;60852;52.190;4.422;2023-12-29T07:44:17;11.75;83.27
68943;DHT22;60852;52.190;4.422;2023-12-29T07:46:43;11.68;83.35
68943;DHT22;60852;52.190;4.422;2023-12-29T07:49:09;11.68;83.38
68943;DHT22;60852;52.190;4.422;2023-12-29T07:51:42;11.71;82.95
68943;DHT22;60852;52.190;4.422;2023-12-29T07:54:08;11.67;82.93
68943;DHT22;60852;52.190;4.422;2023-12-29T07:56:34;11.73;82.48
68943;DHT22;60852;52.190;4.422;2023-12-29T07:58:59;11.75;82.15
68943;DHT22;60852;52.190;4.422;2023-12-29T08:01:25;11.77;82.09
68943;DHT22;60852;52.190;4.422;2023-12-29T08:03:51;11.80;81.94
68943;DHT22;60852;52.190;4.422;2023-12-29T08:06:16;11.85;81.79
68943;DHT22;60852;52.190;4.422;2023-12-29T08:08:42;11.73;81.95
68943;DHT22;60852;52.190;4.422;2023-12-29T08:11:17;11.78;82.07
68943;DHT22;60852;52.190;4.422;2023-12-29T08:13:47;11.66;82.55
68943;DHT22;60852;52.190;4.422;2023-12-29T08:16:13;11.59;82.60
68943;DHT22;60852;52.190;4.422;2023-12-29T08:18:38;11.61;82.85
68943;DHT22;60852;52.190;4.422;2023-12-29T08:21:04;11.63;82.73
68943;DHT22;60852;52.190;4.422;2023-12-29T08:23:29;11.63;82.78
68943;DHT22;60852;52.190;4.422;2023-12-29T08:25:58;11.70;82.46
68943;DHT22;60852;52.190;4.422;2023-12-29T08:28:24;11.67;82.45
68943;DHT22;60852;52.190;4.422;2023-12-29T08:30:49;11.73;82.09
68943;DHT22;60852;52.190;4.422;2023-12-29T08:33:15;11.61;82.24
68943;DHT22;60852;52.190;4.422;2023-12-29T08:35:42;11.60;82.26
68943;DHT22;60852;52.190;4.422;2023-12-29T08:38:08;11.70;82.18
68943;DHT22;60852;52.190;4.422;2023-12-29T08:40:33;11.73;82.08
68943;DHT22;60852;52.190;4.422;2023-12-29T08:42:59;11.70;82.07
68943;DHT22;60852;52.190;4.422;2023-12-29T08:45:26;11.67;82.03
68943;DHT22;60852;52.190;4.422;2023-12-29T08:47:52;11.77;81.91
68943;DHT22;60852;52.190;4.422;2023-12-29T08:50:17;11.84;81.69
68943;DHT22;60852;52.190;4.422;2023-12-29T08:52:43;11.73;81.98
68943;DHT22;60852;52.190;4.422;2023-12-29T08:55:08;11.74;82.16
68943;DHT22;60852;52.190;4.422;2023-12-29T08:57:35;11.75;82.26
68943;DHT22;60852;52.190;4.422;2023-12-29T09:00:00;11.74;82.40
68943;DHT22;60852;52.190;4.422;2023-12-29T09:02:26;11.75;82.56
68943;DHT22;60852;52.190;4.422;2023-12-29T09:04:51;11.71;82.68
68943;DHT22;60852;52.190;4.422;2023-12-29T09:07:17;11.68;82.86
68943;DHT22;60852;52.190;4.422;2023-12-29T09:09:42;11.77;82.79
68943;DHT22;60852;52.190;4.422;2023-12-29T09:12:08;11.81;82.61
68943;DHT22;60852;52.190;4.422;2023-12-29T09:14:33;11.82;82.54
68943;DHT22;60852;52.190;4.422;2023-12-29T09:17:00;11.81;82.74
68943;DHT22;60852;52.190;4.422;2023-12-29T09:19:25;11.81;82.89
68943;DHT22;60852;52.190;4.422;2023-12-29T09:21:51;11.81;83.16
68943;DHT22;60852;52.190;4.422;2023-12-29T09:24:17;11.84;83.23
68943;DHT22;60852;52.190;4.422;2023-12-29T09:26:42;11.84;83.22
68943;DHT22;60852;52.190;4.422;2023-12-29T09:29:07;11.88;83.03
68943;DHT22;60852;52.190;4.422;2023-12-29T09:31:33;11.92;82.57
68943;DHT22;60852;52.190;4.422;2023-12-29T09:33:58;11.90;82.41
68943;DHT22;60852;52.190;4.422;2023-12-29T09:36:24;11.90;83.02
68943;DHT22;60852;52.190;4.422;2023-12-29T09:38:49;11.95;83.28
68943;DHT22;60852;52.190;4.422;2023-12-29T09:41:15;11.88;83.50
68943;DHT22;60852;52.190;4.422;2023-12-29T09:43:41;11.80;83.86
68943;DHT22;60852;52.190;4.422;2023-12-29T09:46:11;11.74;83.21
68943;DHT22;60852;52.190;4.422;2023-12-29T09:48:38;11.67;82.74
68943;DHT22;60852;52.190;4.422;2023-12-29T09:51:06;11.74;83.30
68943;DHT22;60852;52.190;4.422;2023-12-29T09:53:36;11.85;83.52
68943;DHT22;60852;52.190;4.422;2023-12-29T09:56:03;11.94;83.26
68943;DHT22;60852;52.190;4.422;2023-12-29T09:58:30;11.94;83.20
68943;DHT22;60852;52.190;4.422;2023-12-29T10:00:56;11.92;83.42
68943;DHT22;60852;52.190;4.422;2023-12-29T10:03:22;11.92;83.46
68943;DHT22;60852;52.190;4.422;2023-12-29T10:05:51;11.88;83.98
68943;DHT22;60852;52.190;4.422;2023-12-29T10:08:22;11.88;84.01
68943;DHT22;60852;52.190;4.422;2023-12-29T10:10:48;11.92;83.78
68943;DHT22;60852;52.190;4.422;2023-12-29T10:13:17;12.01;83.22
68943;DHT22;60852;52.190;4.422;2023-12-29T10:16:08;11.98;83.02
68943;DHT22;60852;52.190;4.422;2023-12-29T10:19:16;12.02;82.70
68943;DHT22;60852;52.190;4.422;2023-12-29T10:21:48;11.94;82.26
68943;DHT22;60852;52.190;4.422;2023-12-29T10:24:21;11.87;82.15
68943;DHT22;60852;52.190;4.422;2023-12-29T10:26:47;11.88;81.81
68943;DHT22;60852;52.190;4.422;2023-12-29T10:29:13;11.88;81.67
68943;DHT22;60852;52.190;4.422;2023-12-29T10:31:39;11.88;81.68
68943;DHT22;60852;52.190;4.422;2023-12-29T10:34:17;12.01;81.43
68943;DHT22;60852;52.190;4.422;2023-12-29T10:36:47;12.05;80.96
68943;DHT22;60852;52.190;4.422;2023-12-29T10:39:13;12.02;80.52
68943;DHT22;60852;52.190;4.422;2023-12-29T10:41:38;12.02;79.93
68943;DHT22;60852;52.190;4.422;2023-12-29T10:44:06;12.05;79.68
68943;DHT22;60852;52.190;4.422;2023-12-29T10:46:32;12.06;79.36
68943;DHT22;60852;52.190;4.422;2023-12-29T10:49:10;12.15;79.46
68943;DHT22;60852;52.190;4.422;2023-12-29T10:51:36;12.12;79.94
68943;DHT22;60852;52.190;4.422;2023-12-29T10:54:03;12.14;80.08
68943;DHT22;60852;52.190;4.422;2023-12-29T10:56:29;12.06;80.40
68943;DHT22;60852;52.190;4.422;2023-12-29T10:59:00;11.99;80.63
68943;DHT22;60852;52.190;4.422;2023-12-29T11:01:28;11.95;80.47
68943;DHT22;60852;52.190;4.422;2023-12-29T11:03:58;11.92;80.43
68943;DHT22;60852;52.190;4.422;2023-12-29T11:06:26;11.97;80.31
68943;DHT22;60852;52.190;4.422;2023-12-29T11:08:51;11.92;80.22
68943;DHT22;60852;52.190;4.422;2023-12-29T11:11:18;11.94;80.13
68943;DHT22;60852;52.190;4.422;2023-12-29T11:13:46;11.94;80.03
68943;DHT22;60852;52.190;4.422;2023-12-29T11:16:12;11.94;79.88
68943;DHT22;60852;52.190;4.422;2023-12-29T11:18:38;11.94;79.94
68943;DHT22;60852;52.190;4.422;2023-12-29T11:21:05;12.01;79.82
68943;DHT22;60852;52.190;4.422;2023-12-29T11:23:31;12.05;79.83
68943;DHT22;60852;52.190;4.422;2023-12-29T11:25:57;12.06;79.69
68943;DHT22;60852;52.190;4.422;2023-12-29T11:28:25;12.05;79.79
68943;DHT22;60852;52.190;4.422;2023-12-29T11:30:51;12.05;79.67
68943;DHT22;60852;52.190;4.422;2023-12-29T11:33:23;12.09;79.36
68943;DHT22;60852;52.190;4.422;2023-12-29T11:36:02;12.12;78.96
68943;DHT22;60852;52.190;4.422;2023-12-29T11:43:57;12.06;78.53
68943;DHT22;60852;52.190;4.422;2023-12-29T11:46:40;12.08;78.49
68943;DHT22;60852;52.190;4.422;2023-12-29T11:49:08;12.06;78.60
68943;DHT22;60852;52.190;4.422;2023-12-29T11:51:42;12.04;78.61
68943;DHT22;60852;52.190;4.422;2023-12-29T11:54:21;12.06;78.36
68943;DHT22;60852;52.190;4.422;2023-12-29T11:56:47;12.06;78.34
68943;DHT22;60852;52.190;4.422;2023-12-29T11:59:18;12.15;78.48
68943;DHT22;60852;52.190;4.422;2023-12-29T12:01:55;12.25;78.33
68943;DHT22;60852;52.190;4.422;2023-12-29T12:04:40;12.22;77.94
68943;DHT22;60852;52.190;4.422;2023-12-29T12:07:12;12.22;78.06
68943;DHT22;60852;52.190;4.422;2023-12-29T12:09:38;12.24;78.00
68943;DHT22;60852;52.190;4.422;2023-12-29T12:12:05;12.21;77.95
68943;DHT22;60852;52.190;4.422;2023-12-29T12:17:33;12.24;77.98
68943;DHT22;60852;52.190;4.422;2023-12-29T12:20:06;12.18;78.18
68943;DHT22;60852;52.190;4.422;2023-12-29T12:22:35;12.19;77.96
68943;DHT22;60852;52.190;4.422;2023-12-29T12:25:01;12.11;78.22
68943;DHT22;60852;52.190;4.422;2023-12-29T12:27:28;12.06;78.42
68943;DHT22;60852;52.190;4.422;2023-12-29T12:29:54;12.05;78.62
68943;DHT22;60852;52.190;4.422;2023-12-29T12:32:23;12.04;78.45
68943;DHT22;60852;52.190;4.422;2023-12-29T12:34:48;12.01;78.58
68943;DHT22;60852;52.190;4.422;2023-12-29T12:37:19;12.02;78.65
68943;DHT22;60852;52.190;4.422;2023-12-29T12:39:45;11.99;78.89
68943;DHT22;60852;52.190;4.422;2023-12-29T12:42:11;11.97;78.87
68943;DHT22;60852;52.190;4.422;2023-12-29T12:44:42;11.97;78.94
68943;DHT22;60852;52.190;4.422;2023-12-29T12:47:17;11.97;78.94
68943;DHT22;60852;52.190;4.422;2023-12-29T12:49:43;11.94;78.79
68943;DHT22;60852;52.190;4.422;2023-12-29T12:52:09;11.95;78.77
68943;DHT22;60852;52.190;4.422;2023-12-29T12:54:35;11.97;78.75
68943;DHT22;60852;52.190;4.422;2023-12-29T12:57:01;11.94;78.91
68943;DHT22;60852;52.190;4.422;2023-12-29T12:59:28;11.94;79.17
68943;DHT22;60852;52.190;4.422;2023-12-29T13:01:53;12.01;79.17
68943;DHT22;60852;52.190;4.422;2023-12-29T13:04:19;12.02;79.20
68943;DHT22;60852;52.190;4.422;2023-12-29T13:06:45;12.06;78.94
68943;DHT22;60852;52.190;4.422;2023-12-29T13:09:12;12.02;79.03
68943;DHT22;60852;52.190;4.422;2023-12-29T13:11:41;11.92;79.26
68943;DHT22;60852;52.190;4.422;2023-12-29T13:14:06;11.90;79.37
68943;DHT22;60852;52.190;4.422;2023-12-29T13:16:35;11.92;79.25
68943;DHT22;60852;52.190;4.422;2023-12-29T13:19:16;11.88;79.57
68943;DHT22;60852;52.190;4.422;2023-12-29T13:21:46;11.90;79.52
68943;DHT22;60852;52.190;4.422;2023-12-29T13:24:13;11.90;79.36
68943;DHT22;60852;52.190;4.422;2023-12-29T13:26:38;11.87;79.26
68943;DHT22;60852;52.190;4.422;2023-12-29T13:29:05;11.84;79.19
68943;DHT22;60852;52.190;4.422;2023-12-29T13:31:31;11.80;79.26
68943;DHT22;60852;52.190;4.422;2023-12-29T13:34:12;11.78;79.01
68943;DHT22;60852;52.190;4.422;2023-12-29T13:36:54;11.74;78.85
68943;DHT22;60852;52.190;4.422;2023-12-29T13:39:38;11.74;78.79
68943;DHT22;60852;52.190;4.422;2023-12-29T13:42:08;11.70;78.85
68943;DHT22;60852;52.190;4.422;2023-12-29T13:44:38;11.71;78.65
68943;DHT22;60852;52.190;4.422;2023-12-29T13:47:05;11.71;78.60
68943;DHT22;60852;52.190;4.422;2023-12-29T13:49:31;11.68;78.53
68943;DHT22;60852;52.190;4.422;2023-12-29T13:52:04;11.66;78.54
68943;DHT22;60852;52.190;4.422;2023-12-29T13:54:40;11.68;78.73
68943;DHT22;60852;52.190;4.422;2023-12-29T13:57:06;11.73;78.49
68943;DHT22;60852;52.190;4.422;2023-12-29T13:59:32;11.73;78.59
68943;DHT22;60852;52.190;4.422;2023-12-29T14:02:22;11.70;78.70
68943;DHT22;60852;52.190;4.422;2023-12-29T14:04:48;11.71;78.85
68943;DHT22;60852;52.190;4.422;2023-12-29T14:07:14;11.75;78.88
68943;DHT22;60852;52.190;4.422;2023-12-29T14:09:44;11.71;79.30
68943;DHT22;60852;52.190;4.422;2023-12-29T14:12:09;11.71;79.71
68943;DHT22;60852;52.190;4.422;2023-12-29T14:14:35;11.71;79.78
68943;DHT22;60852;52.190;4.422;2023-12-29T14:17:00;11.59;79.01
68943;DHT22;60852;52.190;4.422;2023-12-29T14:19:34;11.51;78.45
68943;DHT22;60852;52.190;4.422;2023-12-29T14:21:59;11.43;76.14
68943;DHT22;60852;52.190;4.422;2023-12-29T14:24:25;11.51;77.93
68943;DHT22;60852;52.190;4.422;2023-12-29T14:26:55;11.53;79.52
68943;DHT22;60852;52.190;4.422;2023-12-29T14:29:22;11.57;80.57
68943;DHT22;60852;52.190;4.422;2023-12-29T14:31:48;11.60;80.96
68943;DHT22;60852;52.190;4.422;2023-12-29T14:34:17;11.60;81.19
68943;DHT22;60852;52.190;4.422;2023-12-29T14:36:43;11.57;81.70
68943;DHT22;60852;52.190;4.422;2023-12-29T14:39:09;11.39;79.56
68943;DHT22;60852;52.190;4.422;2023-12-29T14:41:35;11.27;81.42
68943;DHT22;60852;52.190;4.422;2023-12-29T14:44:01;11.23;81.82
68943;DHT22;60852;52.190;4.422;2023-12-29T14:46:27;11.31;82.05
68943;DHT22;60852;52.190;4.422;2023-12-29T14:48:54;11.34;82.35
68943;DHT22;60852;52.190;4.422;2023-12-29T14:51:21;11.39;82.59
68943;DHT22;60852;52.190;4.422;2023-12-29T14:53:49;11.41;82.64
68943;DHT22;60852;52.190;4.422;2023-12-29T14:56:16;11.40;82.75
68943;DHT22;60852;52.190;4.422;2023-12-29T14:58:42;11.40;83.02
68943;DHT22;60852;52.190;4.422;2023-12-29T15:01:08;11.34;83.25
68943;DHT22;60852;52.190;4.422;2023-12-29T15:03:34;11.30;83.31
68943;DHT22;60852;52.190;4.422;2023-12-29T15:06:01;11.31;83.27
68943;DHT22;60852;52.190;4.422;2023-12-29T15:08:27;11.30;83.59
68943;DHT22;60852;52.190;4.422;2023-12-29T15:10:56;11.29;83.61
68943;DHT22;60852;52.190;4.422;2023-12-29T15:13:23;11.30;83.75
68943;DHT22;60852;52.190;4.422;2023-12-29T15:15:50;11.30;83.96
68943;DHT22;60852;52.190;4.422;2023-12-29T15:18:15;11.37;83.93
68943;DHT22;60852;52.190;4.422;2023-12-29T15:20:42;11.43;83.83
68943;DHT22;60852;52.190;4.422;2023-12-29T15:23:08;11.46;83.73
68943;DHT22;60852;52.190;4.422;2023-12-29T15:25:33;11.51;83.71
68943;DHT22;60852;52.190;4.422;2023-12-29T15:27:59;11.57;83.63
68943;DHT22;60852;52.190;4.422;2023-12-29T15:30:24;11.60;83.68
68943;DHT22;60852;52.190;4.422;2023-12-29T15:32:50;11.68;83.79
68943;DHT22;60852;52.190;4.422;2023-12-29T15:35:15;11.80;83.73
68943;DHT22;60852;52.190;4.422;2023-12-29T15:37:41;11.68;81.80
68943;DHT22;60852;52.190;4.422;2023-12-29T15:40:07;11.31;80.58